sensor_id;sensor_type;location;lat;lon;timestamp;P1;durP1;ratioP1;P2;durP2;ratioP2
2293;SDS011;1155;42.644;23.264;2022-08-11T00:01:04;6.80;;;6.10;;
2293;SDS011;1155;42.644;23.264;2022-08-11T00:03:35;7.07;;;6.37;;
2293;SDS011;1155;42.644;23.264;2022-08-11T00:06:07;6.83;;;6.20;;
2293;SDS011;1155;42.644;23.264;2022-08-11T00:08:35;7.33;;;6.63;;
2293;SDS011;1155;42.644;23.264;2022-08-11T00:11:04;6.70;;;6.07;;
2293;SDS011;1155;42.644;23.264;2022-08-11T00:13:35;6.97;;;6.37;;
2293;SDS011;1155;42.644;23.264;2022-08-11T00:16:10;7.13;;;6.53;;
2293;SDS011;1155;42.644;23.264;2022-08-11T00:18:40;9.30;;;6.50;;
2293;SDS011;1155;42.644;23.264;2022-08-11T00:21:08;7.40;;;6.60;;
2293;SDS011;1155;42.644;23.264;2022-08-11T00:23:38;8.07;;;6.80;;
2293;SDS011;1155;42.644;23.264;2022-08-11T00:26:08;7.83;;;7.13;;
2293;SDS011;1155;42.644;23.264;2022-08-11T00:28:35;12.13;;;7.10;;
2293;SDS011;1155;42.644;23.264;2022-08-11T00:31:04;7.87;;;7.07;;
2293;SDS011;1155;42.644;23.264;2022-08-11T00:33:37;7.00;;;6.40;;
2293;SDS011;1155;42.644;23.264;2022-08-11T00:36:08;7.70;;;7.10;;
2293;SDS011;1155;42.644;23.264;2022-08-11T00:38:37;7.40;;;6.70;;
2293;SDS011;1155;42.644;23.264;2022-08-11T00:41:10;9.90;;;7.70;;
2293;SDS011;1155;42.644;23.264;2022-08-11T00:43:50;9.67;;;6.67;;
2293;SDS011;1155;42.644;23.264;2022-08-11T00:46:34;8.20;;;7.40;;
2293;SDS011;1155;42.644;23.264;2022-08-11T00:49:10;9.10;;;6.60;;
2293;SDS011;1155;42.644;23.264;2022-08-11T00:51:54;7.00;;;6.40;;
2293;SDS011;1155;42.644;23.264;2022-08-11T00:54:51;8.00;;;6.80;;
2293;SDS011;1155;42.644;23.264;2022-08-11T00:57:44;6.70;;;6.03;;
2293;SDS011;1155;42.644;23.264;2022-08-11T01:00:31;7.30;;;6.60;;
2293;SDS011;1155;42.644;23.264;2022-08-11T01:03:13;7.67;;;6.97;;
2293;SDS011;1155;42.644;23.264;2022-08-11T01:09:13;7.10;;;6.40;;
2293;SDS011;1155;42.644;23.264;2022-08-11T01:12:04;7.97;;;7.20;;
2293;SDS011;1155;42.644;23.264;2022-08-11T01:15:11;7.40;;;6.80;;
2293;SDS011;1155;42.644;23.264;2022-08-11T01:18:28;6.23;;;5.73;;
2293;SDS011;1155;42.644;23.264;2022-08-11T01:21:35;7.80;;;5.90;;
2293;SDS011;1155;42.644;23.264;2022-08-11T01:24:46;8.30;;;7.30;;
2293;SDS011;1155;42.644;23.264;2022-08-11T01:30:45;8.17;;;6.93;;
2293;SDS011;1155;42.644;23.264;2022-08-11T01:39:47;9.10;;;7.97;;
2293;SDS011;1155;42.644;23.264;2022-08-11T01:42:43;6.60;;;6.00;;
2293;SDS011;1155;42.644;23.264;2022-08-11T01:45:45;7.53;;;6.87;;
2293;SDS011;1155;42.644;23.264;2022-08-11T01:48:21;7.03;;;6.33;;
2293;SDS011;1155;42.644;23.264;2022-08-11T01:51:07;6.93;;;6.23;;
2293;SDS011;1155;42.644;23.264;2022-08-11T01:53:53;6.87;;;6.27;;
2293;SDS011;1155;42.644;23.264;2022-08-11T01:56:31;7.33;;;6.47;;
2293;SDS011;1155;42.644;23.264;2022-08-11T01:59:16;8.80;;;6.40;;
2293;SDS011;1155;42.644;23.264;2022-08-11T02:02:12;7.03;;;6.33;;
2293;SDS011;1155;42.644;23.264;2022-08-11T02:05:13;7.33;;;6.40;;
2293;SDS011;1155;42.644;23.264;2022-08-11T02:07:51;7.27;;;6.57;;
2293;SDS011;1155;42.644;23.264;2022-08-11T02:10:25;7.60;;;7.00;;
2293;SDS011;1155;42.644;23.264;2022-08-11T02:13:14;7.67;;;6.97;;
2293;SDS011;1155;42.644;23.264;2022-08-11T02:15:50;8.30;;;6.87;;
2293;SDS011;1155;42.644;23.264;2022-08-11T02:18:22;10.40;;;7.00;;
2293;SDS011;1155;42.644;23.264;2022-08-11T02:21:12;7.30;;;6.70;;
2293;SDS011;1155;42.644;23.264;2022-08-11T02:24:02;7.30;;;6.60;;
2293;SDS011;1155;42.644;23.264;2022-08-11T02:26:34;7.00;;;6.40;;
2293;SDS011;1155;42.644;23.264;2022-08-11T02:29:08;7.97;;;7.23;;
2293;SDS011;1155;42.644;23.264;2022-08-11T02:31:46;7.03;;;6.40;;
2293;SDS011;1155;42.644;23.264;2022-08-11T02:34:42;6.40;;;5.80;;
2293;SDS011;1155;42.644;23.264;2022-08-11T02:37:15;8.40;;;6.17;;
2293;SDS011;1155;42.644;23.264;2022-08-11T02:39:53;6.63;;;5.90;;
2293;SDS011;1155;42.644;23.264;2022-08-11T02:42:30;6.23;;;5.60;;
2293;SDS011;1155;42.644;23.264;2022-08-11T02:45:15;7.90;;;5.63;;
2293;SDS011;1155;42.644;23.264;2022-08-11T02:47:59;6.27;;;5.73;;
2293;SDS011;1155;42.644;23.264;2022-08-11T02:51:04;6.57;;;5.97;;
2293;SDS011;1155;42.644;23.264;2022-08-11T02:53:38;6.17;;;5.50;;
2293;SDS011;1155;42.644;23.264;2022-08-11T02:56:13;5.43;;;5.03;;
2293;SDS011;1155;42.644;23.264;2022-08-11T02:59:02;5.20;;;4.80;;
2293;SDS011;1155;42.644;23.264;2022-08-11T03:01:55;5.60;;;5.10;;
2293;SDS011;1155;42.644;23.264;2022-08-11T03:04:30;6.63;;;5.93;;
2293;SDS011;1155;42.644;23.264;2022-08-11T03:07:12;7.33;;;6.27;;
2293;SDS011;1155;42.644;23.264;2022-08-11T03:09:48;6.10;;;5.43;;
2293;SDS011;1155;42.644;23.264;2022-08-11T03:12:27;6.30;;;5.70;;
2293;SDS011;1155;42.644;23.264;2022-08-11T03:15:19;5.83;;;5.33;;
2293;SDS011;1155;42.644;23.264;2022-08-11T03:18:14;5.30;;;4.90;;
2293;SDS011;1155;42.644;23.264;2022-08-11T03:20:50;5.40;;;5.00;;
2293;SDS011;1155;42.644;23.264;2022-08-11T03:23:40;5.50;;;5.10;;
2293;SDS011;1155;42.644;23.264;2022-08-11T03:26:21;5.80;;;5.30;;
2293;SDS011;1155;42.644;23.264;2022-08-11T03:28:52;5.93;;;5.37;;
2293;SDS011;1155;42.644;23.264;2022-08-11T03:31:31;6.57;;;6.07;;
2293;SDS011;1155;42.644;23.264;2022-08-11T03:34:02;5.53;;;5.03;;
2293;SDS011;1155;42.644;23.264;2022-08-11T03:36:40;5.77;;;5.27;;
2293;SDS011;1155;42.644;23.264;2022-08-11T03:39:21;6.47;;;5.87;;
2293;SDS011;1155;42.644;23.264;2022-08-11T03:42:00;5.80;;;5.27;;
2293;SDS011;1155;42.644;23.264;2022-08-11T03:44:41;5.37;;;4.87;;
2293;SDS011;1155;42.644;23.264;2022-08-11T03:47:29;6.10;;;5.60;;
2293;SDS011;1155;42.644;23.264;2022-08-11T03:50:15;5.67;;;5.07;;
2293;SDS011;1155;42.644;23.264;2022-08-11T03:52:57;6.33;;;5.80;;
2293;SDS011;1155;42.644;23.264;2022-08-11T03:55:44;6.77;;;5.80;;
2293;SDS011;1155;42.644;23.264;2022-08-11T03:58:37;6.10;;;5.50;;
2293;SDS011;1155;42.644;23.264;2022-08-11T04:01:28;6.13;;;5.53;;
2293;SDS011;1155;42.644;23.264;2022-08-11T04:04:43;6.43;;;5.83;;
2293;SDS011;1155;42.644;23.264;2022-08-11T04:14:18;5.17;;;4.70;;
2293;SDS011;1155;42.644;23.264;2022-08-11T04:20:27;6.00;;;5.50;;
2293;SDS011;1155;42.644;23.264;2022-08-11T04:23:23;6.73;;;6.13;;
2293;SDS011;1155;42.644;23.264;2022-08-11T04:26:04;6.90;;;6.30;;
2293;SDS011;1155;42.644;23.264;2022-08-11T04:29:02;6.43;;;5.83;;
2293;SDS011;1155;42.644;23.264;2022-08-11T04:31:42;7.07;;;6.43;;
2293;SDS011;1155;42.644;23.264;2022-08-11T04:34:35;8.47;;;6.50;;
2293;SDS011;1155;42.644;23.264;2022-08-11T04:40:17;6.27;;;5.67;;
2293;SDS011;1155;42.644;23.264;2022-08-11T04:43:15;6.90;;;6.20;;
2293;SDS011;1155;42.644;23.264;2022-08-11T04:52:45;6.80;;;6.20;;
2293;SDS011;1155;42.644;23.264;2022-08-11T05:05:28;5.67;;;5.23;;
2293;SDS011;1155;42.644;23.264;2022-08-11T05:11:20;11.13;;;6.73;;
2293;SDS011;1155;42.644;23.264;2022-08-11T05:14:06;7.00;;;6.30;;
2293;SDS011;1155;42.644;23.264;2022-08-11T05:17:26;7.03;;;6.43;;
2293;SDS011;1155;42.644;23.264;2022-08-11T05:20:17;7.47;;;6.77;;
2293;SDS011;1155;42.644;23.264;2022-08-11T05:23:03;6.27;;;5.67;;
2293;SDS011;1155;42.644;23.264;2022-08-11T05:25:52;7.17;;;6.57;;
2293;SDS011;1155;42.644;23.264;2022-08-11T05:28:40;6.93;;;6.23;;
2293;SDS011;1155;42.644;23.264;2022-08-11T05:31:31;7.37;;;6.67;;
2293;SDS011;1155;42.644;23.264;2022-08-11T05:34:19;8.77;;;7.13;;
2293;SDS011;1155;42.644;23.264;2022-08-11T05:37:06;7.30;;;6.53;;
2293;SDS011;1155;42.644;23.264;2022-08-11T05:39:38;6.80;;;6.20;;
2293;SDS011;1155;42.644;23.264;2022-08-11T05:42:28;7.47;;;6.30;;
2293;SDS011;1155;42.644;23.264;2022-08-11T05:45:16;8.70;;;6.93;;
2293;SDS011;1155;42.644;23.264;2022-08-11T05:48:00;9.57;;;8.07;;
2293;SDS011;1155;42.644;23.264;2022-08-11T05:50:52;12.80;;;9.70;;
2293;SDS011;1155;42.644;23.264;2022-08-11T05:53:48;8.47;;;7.67;;
2293;SDS011;1155;42.644;23.264;2022-08-11T05:56:41;12.33;;;7.57;;
2293;SDS011;1155;42.644;23.264;2022-08-11T05:59:15;10.10;;;7.50;;
2293;SDS011;1155;42.644;23.264;2022-08-11T06:01:47;11.47;;;8.43;;
2293;SDS011;1155;42.644;23.264;2022-08-11T06:04:15;10.80;;;7.60;;
2293;SDS011;1155;42.644;23.264;2022-08-11T06:06:51;7.40;;;6.60;;
2293;SDS011;1155;42.644;23.264;2022-08-11T06:09:25;8.57;;;6.60;;
2293;SDS011;1155;42.644;23.264;2022-08-11T06:11:55;8.07;;;6.57;;
2293;SDS011;1155;42.644;23.264;2022-08-11T06:14:28;8.07;;;7.27;;
2293;SDS011;1155;42.644;23.264;2022-08-11T06:16:58;7.60;;;6.07;;
2293;SDS011;1155;42.644;23.264;2022-08-11T06:19:33;7.17;;;6.37;;
2293;SDS011;1155;42.644;23.264;2022-08-11T06:22:06;12.37;;;6.83;;
2293;SDS011;1155;42.644;23.264;2022-08-11T06:24:36;7.63;;;6.87;;
2293;SDS011;1155;42.644;23.264;2022-08-11T06:27:05;11.00;;;6.63;;
2293;SDS011;1155;42.644;23.264;2022-08-11T06:29:35;7.90;;;6.37;;
2293;SDS011;1155;42.644;23.264;2022-08-11T06:32:06;7.47;;;6.70;;
2293;SDS011;1155;42.644;23.264;2022-08-11T06:34:39;6.97;;;6.27;;
2293;SDS011;1155;42.644;23.264;2022-08-11T06:37:22;6.57;;;5.97;;
2293;SDS011;1155;42.644;23.264;2022-08-11T06:39:59;6.13;;;5.53;;
2293;SDS011;1155;42.644;23.264;2022-08-11T06:42:35;9.80;;;5.63;;
2293;SDS011;1155;42.644;23.264;2022-08-11T06:48:14;6.43;;;5.80;;
2293;SDS011;1155;42.644;23.264;2022-08-11T06:50:47;8.67;;;5.10;;
2293;SDS011;1155;42.644;23.264;2022-08-11T06:53:33;6.47;;;5.40;;
2293;SDS011;1155;42.644;23.264;2022-08-11T06:56:04;7.17;;;6.47;;
2293;SDS011;1155;42.644;23.264;2022-08-11T06:58:50;9.70;;;5.73;;
2293;SDS011;1155;42.644;23.264;2022-08-11T07:01:39;5.40;;;5.00;;
2293;SDS011;1155;42.644;23.264;2022-08-11T07:04:13;5.93;;;5.43;;
2293;SDS011;1155;42.644;23.264;2022-08-11T07:23:11;5.83;;;4.97;;
2293;SDS011;1155;42.644;23.264;2022-08-11T07:25:57;5.53;;;5.03;;
2293;SDS011;1155;42.644;23.264;2022-08-11T07:28:45;5.63;;;4.97;;
2293;SDS011;1155;42.644;23.264;2022-08-11T07:31:24;9.30;;;4.50;;
2293;SDS011;1155;42.644;23.264;2022-08-11T07:33:58;7.90;;;4.57;;
2293;SDS011;1155;42.644;23.264;2022-08-11T07:36:35;6.87;;;4.70;;
2293;SDS011;1155;42.644;23.264;2022-08-11T07:39:09;4.30;;;3.90;;
2293;SDS011;1155;42.644;23.264;2022-08-11T07:41:41;4.77;;;4.37;;
2293;SDS011;1155;42.644;23.264;2022-08-11T07:44:08;5.53;;;4.90;;
2293;SDS011;1155;42.644;23.264;2022-08-11T07:46:38;4.30;;;4.00;;
2293;SDS011;1155;42.644;23.264;2022-08-11T07:49:24;5.90;;;4.90;;
2293;SDS011;1155;42.644;23.264;2022-08-11T07:52:08;4.87;;;4.40;;
2293;SDS011;1155;42.644;23.264;2022-08-11T07:55:00;5.93;;;4.80;;
2293;SDS011;1155;42.644;23.264;2022-08-11T07:57:28;4.27;;;3.87;;
2293;SDS011;1155;42.644;23.264;2022-08-11T08:00:14;6.00;;;3.80;;
2293;SDS011;1155;42.644;23.264;2022-08-11T08:02:59;4.47;;;4.07;;
2293;SDS011;1155;42.644;23.264;2022-08-11T08:05:45;4.20;;;3.80;;
2293;SDS011;1155;42.644;23.264;2022-08-11T08:08:30;3.60;;;3.40;;
2293;SDS011;1155;42.644;23.264;2022-08-11T08:11:16;5.03;;;4.63;;
2293;SDS011;1155;42.644;23.264;2022-08-11T08:14:02;5.00;;;4.60;;
2293;SDS011;1155;42.644;23.264;2022-08-11T08:16:48;4.07;;;3.73;;
2293;SDS011;1155;42.644;23.264;2022-08-11T08:19:32;4.77;;;4.27;;
2293;SDS011;1155;42.644;23.264;2022-08-11T08:22:00;4.00;;;3.70;;
2293;SDS011;1155;42.644;23.264;2022-08-11T08:24:27;4.90;;;3.70;;
2293;SDS011;1155;42.644;23.264;2022-08-11T08:26:56;5.07;;;4.57;;
2293;SDS011;1155;42.644;23.264;2022-08-11T08:29:23;4.03;;;3.73;;
2293;SDS011;1155;42.644;23.264;2022-08-11T08:32:08;5.90;;;4.17;;
2293;SDS011;1155;42.644;23.264;2022-08-11T08:34:36;4.57;;;4.17;;
2293;SDS011;1155;42.644;23.264;2022-08-11T08:37:05;4.00;;;3.67;;
2293;SDS011;1155;42.644;23.264;2022-08-11T08:39:32;4.10;;;3.70;;
2293;SDS011;1155;42.644;23.264;2022-08-11T08:42:05;5.20;;;4.70;;
2293;SDS011;1155;42.644;23.264;2022-08-11T08:44:35;4.43;;;4.03;;
2293;SDS011;1155;42.644;23.264;2022-08-11T08:47:08;5.50;;;3.73;;
2293;SDS011;1155;42.644;23.264;2022-08-11T08:49:44;4.27;;;3.87;;
2293;SDS011;1155;42.644;23.264;2022-08-11T08:52:13;4.63;;;3.87;;
2293;SDS011;1155;42.644;23.264;2022-08-11T08:54:46;4.23;;;3.90;;
2293;SDS011;1155;42.644;23.264;2022-08-11T08:57:19;4.70;;;4.30;;
2293;SDS011;1155;42.644;23.264;2022-08-11T08:59:48;4.43;;;4.13;;
2293;SDS011;1155;42.644;23.264;2022-08-11T09:02:16;4.57;;;3.83;;
2293;SDS011;1155;42.644;23.264;2022-08-11T09:04:44;7.03;;;4.40;;
2293;SDS011;1155;42.644;23.264;2022-08-11T09:07:14;4.53;;;4.13;;
2293;SDS011;1155;42.644;23.264;2022-08-11T09:09:43;4.00;;;3.70;;
2293;SDS011;1155;42.644;23.264;2022-08-11T09:12:13;6.93;;;4.03;;
2293;SDS011;1155;42.644;23.264;2022-08-11T09:14:43;11.07;;;4.30;;
2293;SDS011;1155;42.644;23.264;2022-08-11T09:17:33;4.37;;;3.97;;
2293;SDS011;1155;42.644;23.264;2022-08-11T09:20:04;3.90;;;3.60;;
2293;SDS011;1155;42.644;23.264;2022-08-11T09:22:33;4.77;;;4.37;;
2293;SDS011;1155;42.644;23.264;2022-08-11T09:25:19;5.93;;;4.27;;
2293;SDS011;1155;42.644;23.264;2022-08-11T09:28:06;4.70;;;4.30;;
2293;SDS011;1155;42.644;23.264;2022-08-11T09:30:39;4.70;;;4.30;;
2293;SDS011;1155;42.644;23.264;2022-08-11T09:33:06;4.67;;;3.87;;
2293;SDS011;1155;42.644;23.264;2022-08-11T09:35:37;4.20;;;3.83;;
2293;SDS011;1155;42.644;23.264;2022-08-11T09:38:09;4.23;;;3.90;;
2293;SDS011;1155;42.644;23.264;2022-08-11T09:40:56;4.27;;;3.87;;
2293;SDS011;1155;42.644;23.264;2022-08-11T09:43:24;4.30;;;3.90;;
2293;SDS011;1155;42.644;23.264;2022-08-11T09:46:11;3.90;;;3.60;;
2293;SDS011;1155;42.644;23.264;2022-08-11T09:48:41;3.37;;;3.07;;
2293;SDS011;1155;42.644;23.264;2022-08-11T09:51:09;4.17;;;3.77;;
2293;SDS011;1155;42.644;23.264;2022-08-11T09:53:38;4.10;;;3.80;;
2293;SDS011;1155;42.644;23.264;2022-08-11T09:56:08;4.50;;;4.10;;
2293;SDS011;1155;42.644;23.264;2022-08-11T09:58:51;4.60;;;4.20;;
2293;SDS011;1155;42.644;23.264;2022-08-11T10:01:21;4.50;;;4.03;;
2293;SDS011;1155;42.644;23.264;2022-08-11T10:03:54;5.00;;;4.30;;
2293;SDS011;1155;42.644;23.264;2022-08-11T10:06:25;4.33;;;3.93;;
2293;SDS011;1155;42.644;23.264;2022-08-11T10:09:11;4.20;;;3.90;;
2293;SDS011;1155;42.644;23.264;2022-08-11T10:11:43;5.20;;;4.60;;
2293;SDS011;1155;42.644;23.264;2022-08-11T10:14:11;4.70;;;4.30;;
2293;SDS011;1155;42.644;23.264;2022-08-11T10:16:58;4.13;;;3.83;;
2293;SDS011;1155;42.644;23.264;2022-08-11T10:19:29;11.77;;;4.77;;
2293;SDS011;1155;42.644;23.264;2022-08-11T10:21:58;6.33;;;5.13;;
2293;SDS011;1155;42.644;23.264;2022-08-11T10:24:43;4.40;;;4.03;;
2293;SDS011;1155;42.644;23.264;2022-08-11T10:27:28;4.87;;;4.47;;
2293;SDS011;1155;42.644;23.264;2022-08-11T10:29:56;6.77;;;5.10;;
2293;SDS011;1155;42.644;23.264;2022-08-11T10:32:43;8.20;;;5.50;;
2293;SDS011;1155;42.644;23.264;2022-08-11T10:35:29;6.37;;;4.10;;
2293;SDS011;1155;42.644;23.264;2022-08-11T10:37:57;4.03;;;3.73;;
2293;SDS011;1155;42.644;23.264;2022-08-11T10:40:25;8.57;;;4.87;;
2293;SDS011;1155;42.644;23.264;2022-08-11T10:42:55;4.70;;;4.30;;
2293;SDS011;1155;42.644;23.264;2022-08-11T10:45:37;4.50;;;4.10;;
2293;SDS011;1155;42.644;23.264;2022-08-11T10:48:25;5.40;;;4.90;;
2293;SDS011;1155;42.644;23.264;2022-08-11T10:50:55;4.40;;;4.00;;
2293;SDS011;1155;42.644;23.264;2022-08-11T10:53:42;6.30;;;4.27;;
2293;SDS011;1155;42.644;23.264;2022-08-11T10:56:28;5.20;;;4.70;;
2293;SDS011;1155;42.644;23.264;2022-08-11T10:59:15;4.20;;;3.80;;
2293;SDS011;1155;42.644;23.264;2022-08-11T11:01:43;4.43;;;4.10;;
2293;SDS011;1155;42.644;23.264;2022-08-11T11:04:13;5.17;;;4.17;;
2293;SDS011;1155;42.644;23.264;2022-08-11T11:06:49;4.07;;;3.77;;
2293;SDS011;1155;42.644;23.264;2022-08-11T11:09:23;4.37;;;3.70;;
2293;SDS011;1155;42.644;23.264;2022-08-11T11:11:58;4.50;;;3.73;;
2293;SDS011;1155;42.644;23.264;2022-08-11T11:14:49;3.90;;;3.63;;
2293;SDS011;1155;42.644;23.264;2022-08-11T11:17:36;4.83;;;4.07;;
2293;SDS011;1155;42.644;23.264;2022-08-11T11:20:32;4.07;;;3.70;;
2293;SDS011;1155;42.644;23.264;2022-08-11T11:23:05;4.40;;;4.00;;
2293;SDS011;1155;42.644;23.264;2022-08-11T11:25:45;5.13;;;4.63;;
2293;SDS011;1155;42.644;23.264;2022-08-11T11:28:37;4.40;;;4.00;;
2293;SDS011;1155;42.644;23.264;2022-08-11T11:31:20;4.23;;;3.83;;
2293;SDS011;1155;42.644;23.264;2022-08-11T11:34:11;4.57;;;3.60;;
2293;SDS011;1155;42.644;23.264;2022-08-11T11:36:49;4.70;;;4.30;;
2293;SDS011;1155;42.644;23.264;2022-08-11T11:39:19;3.63;;;3.30;;
2293;SDS011;1155;42.644;23.264;2022-08-11T11:41:48;5.10;;;3.90;;
2293;SDS011;1155;42.644;23.264;2022-08-11T11:44:19;3.97;;;3.63;;
2293;SDS011;1155;42.644;23.264;2022-08-11T11:46:48;3.57;;;3.27;;
2293;SDS011;1155;42.644;23.264;2022-08-11T11:49:16;4.10;;;3.80;;
2293;SDS011;1155;42.644;23.264;2022-08-11T11:51:45;4.80;;;4.40;;
2293;SDS011;1155;42.644;23.264;2022-08-11T11:54:14;4.80;;;4.40;;
2293;SDS011;1155;42.644;23.264;2022-08-11T11:56:41;3.77;;;3.47;;
2293;SDS011;1155;42.644;23.264;2022-08-11T11:59:10;3.70;;;3.40;;
2293;SDS011;1155;42.644;23.264;2022-08-11T12:01:56;3.97;;;3.67;;
2293;SDS011;1155;42.644;23.264;2022-08-11T12:04:24;3.97;;;3.47;;
2293;SDS011;1155;42.644;23.264;2022-08-11T12:06:51;3.77;;;3.40;;
2293;SDS011;1155;42.644;23.264;2022-08-11T12:09:40;9.63;;;3.93;;
2293;SDS011;1155;42.644;23.264;2022-08-11T12:12:08;4.17;;;3.77;;
2293;SDS011;1155;42.644;23.264;2022-08-11T12:15:01;3.73;;;3.30;;
2293;SDS011;1155;42.644;23.264;2022-08-11T12:17:28;4.10;;;3.80;;
2293;SDS011;1155;42.644;23.264;2022-08-11T12:19:55;4.80;;;3.37;;
2293;SDS011;1155;42.644;23.264;2022-08-11T12:22:22;5.40;;;3.77;;
2293;SDS011;1155;42.644;23.264;2022-08-11T12:28:30;4.63;;;3.67;;
2293;SDS011;1155;42.644;23.264;2022-08-11T12:30:59;3.93;;;3.50;;
2293;SDS011;1155;42.644;23.264;2022-08-11T12:33:26;5.17;;;3.90;;
2293;SDS011;1155;42.644;23.264;2022-08-11T12:35:55;3.90;;;3.50;;
2293;SDS011;1155;42.644;23.264;2022-08-11T12:38:24;4.40;;;4.00;;
2293;SDS011;1155;42.644;23.264;2022-08-11T12:40:52;5.57;;;3.73;;
2293;SDS011;1155;42.644;23.264;2022-08-11T12:43:40;5.93;;;4.57;;
2293;SDS011;1155;42.644;23.264;2022-08-11T12:46:28;4.37;;;3.97;;
2293;SDS011;1155;42.644;23.264;2022-08-11T12:48:59;7.30;;;4.47;;
2293;SDS011;1155;42.644;23.264;2022-08-11T12:51:49;4.23;;;3.23;;
2293;SDS011;1155;42.644;23.264;2022-08-11T12:54:25;5.90;;;3.40;;
2293;SDS011;1155;42.644;23.264;2022-08-11T12:56:55;4.43;;;4.03;;
2293;SDS011;1155;42.644;23.264;2022-08-11T12:59:44;3.57;;;3.23;;
2293;SDS011;1155;42.644;23.264;2022-08-11T13:02:29;5.37;;;3.40;;
2293;SDS011;1155;42.644;23.264;2022-08-11T13:05:15;8.47;;;3.77;;
2293;SDS011;1155;42.644;23.264;2022-08-11T13:07:43;6.37;;;3.60;;
2293;SDS011;1155;42.644;23.264;2022-08-11T13:10:12;3.80;;;3.50;;
2293;SDS011;1155;42.644;23.264;2022-08-11T13:13:03;3.50;;;3.20;;
2293;SDS011;1155;42.644;23.264;2022-08-11T13:15:32;4.10;;;3.70;;
2293;SDS011;1155;42.644;23.264;2022-08-11T13:18:01;4.10;;;3.23;;
2293;SDS011;1155;42.644;23.264;2022-08-11T13:20:32;6.97;;;3.60;;
2293;SDS011;1155;42.644;23.264;2022-08-11T13:23:00;4.97;;;3.20;;
2293;SDS011;1155;42.644;23.264;2022-08-11T13:25:30;4.23;;;3.93;;
2293;SDS011;1155;42.644;23.264;2022-08-11T13:27:58;4.60;;;4.20;;
2293;SDS011;1155;42.644;23.264;2022-08-11T13:30:27;3.53;;;3.23;;
2293;SDS011;1155;42.644;23.264;2022-08-11T13:33:15;3.30;;;3.00;;
2293;SDS011;1155;42.644;23.264;2022-08-11T13:35:43;4.07;;;3.67;;
2293;SDS011;1155;42.644;23.264;2022-08-11T13:38:13;3.23;;;3.03;;
2293;SDS011;1155;42.644;23.264;2022-08-11T13:40:42;3.50;;;3.20;;
2293;SDS011;1155;42.644;23.264;2022-08-11T13:43:10;4.13;;;3.50;;
2293;SDS011;1155;42.644;23.264;2022-08-11T13:45:39;3.57;;;3.27;;
2293;SDS011;1155;42.644;23.264;2022-08-11T13:48:08;8.27;;;4.50;;
2293;SDS011;1155;42.644;23.264;2022-08-11T13:50:37;3.83;;;3.53;;
2293;SDS011;1155;42.644;23.264;2022-08-11T13:53:23;4.33;;;3.97;;
2293;SDS011;1155;42.644;23.264;2022-08-11T13:55:52;4.20;;;3.33;;
2293;SDS011;1155;42.644;23.264;2022-08-11T13:58:19;3.73;;;3.43;;
2293;SDS011;1155;42.644;23.264;2022-08-11T14:00:49;3.30;;;3.10;;
2293;SDS011;1155;42.644;23.264;2022-08-11T14:03:18;3.50;;;3.13;;
2293;SDS011;1155;42.644;23.264;2022-08-11T14:05:51;2.93;;;2.73;;
2293;SDS011;1155;42.644;23.264;2022-08-11T14:08:23;3.60;;;3.37;;
2293;SDS011;1155;42.644;23.264;2022-08-11T14:10:52;3.77;;;3.13;;
2293;SDS011;1155;42.644;23.264;2022-08-11T14:13:42;4.10;;;3.60;;
2293;SDS011;1155;42.644;23.264;2022-08-11T14:16:11;3.97;;;3.23;;
2293;SDS011;1155;42.644;23.264;2022-08-11T14:18:45;3.83;;;3.53;;
2293;SDS011;1155;42.644;23.264;2022-08-11T14:21:16;3.80;;;3.40;;
2293;SDS011;1155;42.644;23.264;2022-08-11T14:24:01;3.67;;;3.47;;
2293;SDS011;1155;42.644;23.264;2022-08-11T14:26:29;4.80;;;3.87;;
2293;SDS011;1155;42.644;23.264;2022-08-11T14:29:04;3.57;;;3.27;;
2293;SDS011;1155;42.644;23.264;2022-08-11T14:31:34;5.70;;;3.00;;
2293;SDS011;1155;42.644;23.264;2022-08-11T14:34:05;3.90;;;3.60;;
2293;SDS011;1155;42.644;23.264;2022-08-11T14:36:36;3.43;;;3.20;;
2293;SDS011;1155;42.644;23.264;2022-08-11T14:39:06;3.70;;;3.40;;
2293;SDS011;1155;42.644;23.264;2022-08-11T14:41:36;3.57;;;3.27;;
2293;SDS011;1155;42.644;23.264;2022-08-11T14:44:36;5.10;;;3.90;;
2293;SDS011;1155;42.644;23.264;2022-08-11T14:47:22;3.40;;;3.10;;
2293;SDS011;1155;42.644;23.264;2022-08-11T14:49:52;3.67;;;3.37;;
2293;SDS011;1155;42.644;23.264;2022-08-11T14:52:21;3.03;;;2.83;;
2293;SDS011;1155;42.644;23.264;2022-08-11T14:54:50;3.23;;;3.03;;
2293;SDS011;1155;42.644;23.264;2022-08-11T14:57:36;2.97;;;2.77;;
2293;SDS011;1155;42.644;23.264;2022-08-11T15:00:06;3.63;;;3.07;;
2293;SDS011;1155;42.644;23.264;2022-08-11T15:02:37;4.00;;;3.70;;
2293;SDS011;1155;42.644;23.264;2022-08-11T15:05:23;3.70;;;3.40;;
2293;SDS011;1155;42.644;23.264;2022-08-11T15:07:52;4.40;;;3.50;;
2293;SDS011;1155;42.644;23.264;2022-08-11T15:10:20;3.90;;;3.50;;
2293;SDS011;1155;42.644;23.264;2022-08-11T15:12:48;6.83;;;4.37;;
2293;SDS011;1155;42.644;23.264;2022-08-11T15:15:16;4.10;;;3.80;;
2293;SDS011;1155;42.644;23.264;2022-08-11T15:18:01;5.37;;;3.70;;
2293;SDS011;1155;42.644;23.264;2022-08-11T15:20:30;4.33;;;3.93;;
2293;SDS011;1155;42.644;23.264;2022-08-11T15:23:16;3.87;;;3.57;;
2293;SDS011;1155;42.644;23.264;2022-08-11T15:26:01;3.30;;;3.07;;
2293;SDS011;1155;42.644;23.264;2022-08-11T15:28:32;4.37;;;3.97;;
2293;SDS011;1155;42.644;23.264;2022-08-11T15:31:20;3.43;;;3.13;;
2293;SDS011;1155;42.644;23.264;2022-08-11T15:34:08;3.67;;;3.00;;
2293;SDS011;1155;42.644;23.264;2022-08-11T15:36:56;3.60;;;3.30;;
2293;SDS011;1155;42.644;23.264;2022-08-11T15:39:46;5.63;;;4.60;;
2293;SDS011;1155;42.644;23.264;2022-08-11T15:42:32;3.97;;;3.67;;
2293;SDS011;1155;42.644;23.264;2022-08-11T15:45:19;4.33;;;3.93;;
2293;SDS011;1155;42.644;23.264;2022-08-11T15:48:06;5.23;;;4.03;;
2293;SDS011;1155;42.644;23.264;2022-08-11T15:50:37;5.23;;;3.87;;
2293;SDS011;1155;42.644;23.264;2022-08-11T15:53:10;4.27;;;3.90;;
2293;SDS011;1155;42.644;23.264;2022-08-11T15:55:44;4.73;;;3.80;;
2293;SDS011;1155;42.644;23.264;2022-08-11T15:58:13;10.60;;;4.50;;
2293;SDS011;1155;42.644;23.264;2022-08-11T16:01:01;4.30;;;3.90;;
2293;SDS011;1155;42.644;23.264;2022-08-11T16:03:51;4.67;;;3.47;;
2293;SDS011;1155;42.644;23.264;2022-08-11T16:06:41;3.60;;;3.30;;
2293;SDS011;1155;42.644;23.264;2022-08-11T16:09:13;4.90;;;3.57;;
2293;SDS011;1155;42.644;23.264;2022-08-11T16:11:44;4.10;;;3.80;;
2293;SDS011;1155;42.644;23.264;2022-08-11T16:14:11;11.23;;;4.37;;
2293;SDS011;1155;42.644;23.264;2022-08-11T16:16:55;4.33;;;3.40;;
2293;SDS011;1155;42.644;23.264;2022-08-11T16:19:26;5.43;;;3.90;;
2293;SDS011;1155;42.644;23.264;2022-08-11T16:22:00;5.10;;;3.30;;
2293;SDS011;1155;42.644;23.264;2022-08-11T16:24:29;6.13;;;3.63;;
2293;SDS011;1155;42.644;23.264;2022-08-11T16:27:00;4.50;;;3.57;;
2293;SDS011;1155;42.644;23.264;2022-08-11T16:29:30;8.23;;;3.50;;
2293;SDS011;1155;42.644;23.264;2022-08-11T16:32:02;4.87;;;3.60;;
2293;SDS011;1155;42.644;23.264;2022-08-11T16:34:48;2.93;;;2.70;;
2293;SDS011;1155;42.644;23.264;2022-08-11T16:37:35;5.00;;;3.70;;
2293;SDS011;1155;42.644;23.264;2022-08-11T16:40:21;4.10;;;3.57;;
2293;SDS011;1155;42.644;23.264;2022-08-11T16:42:51;3.70;;;3.40;;
2293;SDS011;1155;42.644;23.264;2022-08-11T16:45:37;3.83;;;3.53;;
2293;SDS011;1155;42.644;23.264;2022-08-11T16:48:23;3.70;;;3.40;;
2293;SDS011;1155;42.644;23.264;2022-08-11T16:50:54;3.40;;;3.10;;
2293;SDS011;1155;42.644;23.264;2022-08-11T16:53:26;3.60;;;3.33;;
2293;SDS011;1155;42.644;23.264;2022-08-11T16:55:54;4.00;;;3.70;;
2293;SDS011;1155;42.644;23.264;2022-08-11T16:58:28;4.07;;;3.77;;
2293;SDS011;1155;42.644;23.264;2022-08-11T17:01:15;4.20;;;3.87;;
2293;SDS011;1155;42.644;23.264;2022-08-11T17:03:50;4.27;;;3.87;;
2293;SDS011;1155;42.644;23.264;2022-08-11T17:06:40;3.67;;;3.30;;
2293;SDS011;1155;42.644;23.264;2022-08-11T17:09:31;5.17;;;3.60;;
2293;SDS011;1155;42.644;23.264;2022-08-11T17:12:19;3.70;;;3.27;;
2293;SDS011;1155;42.644;23.264;2022-08-11T17:15:10;3.57;;;3.33;;
2293;SDS011;1155;42.644;23.264;2022-08-11T17:17:55;3.90;;;3.53;;